地図

経路データ

SID SEASON NUMBER BASIN SUBBASIN NAME ISO_TIME NATURE LAT LON WMO_WIND WMO_PRES WMO_AGENCY TRACK_TYPE DIST2LAND LANDFALL IFLAG USA_AGENCY USA_ATCF_ID USA_LAT USA_LON USA_RECORD USA_STATUS USA_WIND USA_PRES USA_SSHS USA_R34_NE USA_R34_SE USA_R34_SW USA_R34_NW USA_R50_NE USA_R50_SE USA_R50_SW USA_R50_NW USA_R64_NE USA_R64_SE USA_R64_SW USA_R64_NW USA_POCI USA_ROCI USA_RMW USA_EYE TOKYO_LAT TOKYO_LON TOKYO_GRADE TOKYO_WIND TOKYO_PRES TOKYO_R50_DIR TOKYO_R50_LONG TOKYO_R50_SHORT TOKYO_R30_DIR TOKYO_R30_LONG TOKYO_R30_SHORT TOKYO_LAND CMA_LAT CMA_LON CMA_CAT CMA_WIND CMA_PRES HKO_LAT HKO_LON HKO_CAT HKO_WIND HKO_PRES NEWDELHI_LAT NEWDELHI_LON NEWDELHI_GRADE NEWDELHI_WIND NEWDELHI_PRES NEWDELHI_CI NEWDELHI_DP NEWDELHI_POCI REUNION_LAT REUNION_LON REUNION_TYPE REUNION_WIND REUNION_PRES REUNION_TNUM REUNION_CI REUNION_RMW REUNION_R34_NE REUNION_R34_SE REUNION_R34_SW REUNION_R34_NW REUNION_R50_NE REUNION_R50_SE REUNION_R50_SW REUNION_R50_NW REUNION_R64_NE REUNION_R64_SE REUNION_R64_SW REUNION_R64_NW BOM_LAT BOM_LON BOM_TYPE BOM_WIND BOM_PRES BOM_TNUM BOM_CI BOM_RMW BOM_R34_NE BOM_R34_SE BOM_R34_SW BOM_R34_NW BOM_R50_NE BOM_R50_SE BOM_R50_SW BOM_R50_NW BOM_R64_NE BOM_R64_SE BOM_R64_SW BOM_R64_NW BOM_ROCI BOM_POCI BOM_EYE BOM_POS_METHOD BOM_PRES_METHOD NADI_LAT NADI_LON NADI_CAT NADI_WIND NADI_PRES WELLINGTON_LAT WELLINGTON_LON WELLINGTON_WIND WELLINGTON_PRES DS824_LAT DS824_LON DS824_STAGE DS824_WIND DS824_PRES TD9636_LAT TD9636_LON TD9636_STAGE TD9636_WIND TD9636_PRES TD9635_LAT TD9635_LON TD9635_WIND TD9635_PRES TD9635_ROCI NEUMANN_LAT NEUMANN_LON NEUMANN_CLASS NEUMANN_WIND NEUMANN_PRES MLC_LAT MLC_LON MLC_CLASS MLC_WIND MLC_PRES USA_GUST BOM_GUST BOM_GUST_PER REUNION_GUST REUNION_GUST_PER USA_SEAHGT USA_SEARAD_NE USA_SEARAD_SE USA_SEARAD_SW USA_SEARAD_NW STORM_SPEED STORM_DIR
1947247N15340 1947 62 NA NA NOT_NAMED 1947-09-04 06:00:00 TS 14.5000 -20.1000 30 hurdat_atl main 280 280 O_____________ hurdat_atl AL041947 14.5000 -20.1000 TD 30 -1 14 261
1947247N15340 1947 62 NA NA NOT_NAMED 1947-09-04 09:00:00 TS 14.3904 -20.8077 main 356 356 P_____________ AL041947 14.3904 -20.8077 TD 30 -1 14 262
1947247N15340 1947 62 NA NA NOT_NAMED 1947-09-04 12:00:00 TS 14.3000 -21.5000 30 hurdat_atl main 433 433 O_____________ hurdat_atl AL041947 14.3000 -21.5000 TD 30 -1 13 264
1947247N15340 1947 62 NA NA NOT_NAMED 1947-09-04 15:00:00 TS 14.2423 -22.1649 main 509 509 P_____________ AL041947 14.2423 -22.1649 TD 30 -1 13 265
1947247N15340 1947 62 NA NA NOT_NAMED 1947-09-04 18:00:00 TS 14.2000 -22.8000 30 hurdat_atl main 573 573 O_____________ hurdat_atl AL041947 14.2000 -22.8000 TD 30 -1 12 266
1947247N15340 1947 62 NA NA NOT_NAMED 1947-09-04 21:00:00 TS 14.1499 -23.4225 main 639 639 P_____________ AL041947 14.1499 -23.4225 TD 32 -1 12 265
1947247N15340 1947 62 NA NA NOT_NAMED 1947-09-05 00:00:00 TS 14.1000 -24.0000 35 hurdat_atl main 703 703 O_____________ hurdat_atl AL041947 14.1000 -24.0000 TS 35 0 11 264
1947247N15340 1947 62 NA NA NOT_NAMED 1947-09-05 03:00:00 TS 14.0423 -24.5075 main 758 758 P_____________ AL041947 14.0423 -24.5075 TS 35 0 10 264
1947247N15340 1947 62 NA NA NOT_NAMED 1947-09-05 06:00:00 TS 14.0000 -25.0000 35 hurdat_atl main 812 812 O_____________ hurdat_atl AL041947 14.0000 -25.0000 TS 35 0 10 267
1947247N15340 1947 62 NA NA NOT_NAMED 1947-09-05 09:00:00 TS 13.9925 -25.5499 main 865 865 P_____________ AL041947 13.9925 -25.5499 TS 37 0 11 270
1947247N15340 1947 62 NA NA NOT_NAMED 1947-09-05 12:00:00 TS 14.0000 -26.1000 40 hurdat_atl main 930 930 O_____________ hurdat_atl AL041947 14.0000 -26.1000 TS 40 0 10 270
1947247N15340 1947 62 NA NA NOT_NAMED 1947-09-05 15:00:00 TS 13.9923 -26.6001 main 983 983 P_____________ AL041947 13.9923 -26.6001 TS 40 0 10 270
1947247N15340 1947 62 NA NA NOT_NAMED 1947-09-05 18:00:00 TS 14.0000 -27.1000 40 hurdat_atl main 1037 1037 O_____________ hurdat_atl AL041947 14.0000 -27.1000 TS 40 0 10 273
1947247N15340 1947 62 NA NA NOT_NAMED 1947-09-05 21:00:00 TS 14.0424 -27.6425 main 1091 1091 P_____________ AL041947 14.0424 -27.6425 TS 42 0 11 275
1947247N15340 1947 62 NA NA NOT_NAMED 1947-09-06 00:00:00 TS 14.1000 -28.2000 45 hurdat_atl main 1154 1154 O_____________ hurdat_atl AL041947 14.1000 -28.2000 TS 45 0 11 276
1947247N15340 1947 62 NA NA NOT_NAMED 1947-09-06 03:00:00 TS 14.1499 -28.7500 main 1219 1218 P_____________ AL041947 14.1499 -28.7500 TS 45 0 11 275
1947247N15340 1947 62 NA NA NOT_NAMED 1947-09-06 06:00:00 TS 14.2000 -29.3000 45 hurdat_atl main 1272 1272 O_____________ hurdat_atl AL041947 14.2000 -29.3000 TS 45 0 11 276
1947247N15340 1947 62 NA NA NOT_NAMED 1947-09-06 09:00:00 TS 14.2574 -29.8500 main 1325 1325 P_____________ AL041947 14.2574 -29.8500 TS 47 0 11 275
1947247N15340 1947 62 NA NA NOT_NAMED 1947-09-06 12:00:00 TS 14.3000 -30.4000 50 hurdat_atl main 1389 1389 O_____________ hurdat_atl AL041947 14.3000 -30.4000 TS 50 0 11 273
1947247N15340 1947 62 NA NA NOT_NAMED 1947-09-06 15:00:00 TS 14.3149 -30.9500 main 1443 1454 P_____________ AL041947 14.3149 -30.9500 TS 50 0 11 270
1947247N15340 1947 62 NA NA NOT_NAMED 1947-09-06 18:00:00 TS 14.3000 -31.5000 50 hurdat_atl main 1508 1508 O_____________ hurdat_atl AL041947 14.3000 -31.5000 TS 50 0 11 267
1947247N15340 1947 62 NA NA NOT_NAMED 1947-09-06 21:00:00 TS 14.2574 -32.0500 main 1572 1572 P_____________ AL041947 14.2574 -32.0500 TS 50 0 11 265
1947247N15340 1947 62 NA NA NOT_NAMED 1947-09-07 00:00:00 TS 14.2000 -32.6000 50 hurdat_atl main 1627 1627 O_____________ hurdat_atl AL041947 14.2000 -32.6000 TS 50 0 11 264
1947247N15340 1947 62 NA NA NOT_NAMED 1947-09-07 03:00:00 TS 14.1499 -33.1500 main 1681 1681 P_____________ AL041947 14.1499 -33.1500 TS 50 0 11 265
1947247N15340 1947 62 NA NA NOT_NAMED 1947-09-07 06:00:00 TS 14.1000 -33.7000 50 hurdat_atl main 1746 1746 O_____________ hurdat_atl AL041947 14.1000 -33.7000 TS 50 0 11 265
1947247N15340 1947 62 NA NA NOT_NAMED 1947-09-07 09:00:00 TS 14.0498 -34.2425 main 1801 1801 P_____________ AL041947 14.0498 -34.2425 TS 50 0 11 265
1947247N15340 1947 62 NA NA NOT_NAMED 1947-09-07 12:00:00 TS 14.0000 -34.8000 50 hurdat_atl main 1865 1865 O_____________ hurdat_atl AL041947 14.0000 -34.8000 TS 50 0 11 265
1947247N15340 1947 62 NA NA NOT_NAMED 1947-09-07 15:00:00 TS 13.9499 -35.3925 main 1931 1928 P_____________ AL041947 13.9499 -35.3925 TS 50 0 12 265
1947247N15340 1947 62 NA NA NOT_NAMED 1947-09-07 18:00:00 TS 13.9000 -36.0000 50 hurdat_atl main 1928 1915 O_____________ hurdat_atl AL041947 13.9000 -36.0000 TS 50 0 12 265
1947247N15340 1947 62 NA NA NOT_NAMED 1947-09-07 21:00:00 TS 13.8498 -36.5925 main 1904 1878 P_____________ AL041947 13.8498 -36.5925 TS 50 0 12 265
1947247N15340 1947 62 NA NA NOT_NAMED 1947-09-08 00:00:00 TS 13.8000 -37.2000 50 hurdat_atl main 1878 1824 O_____________ hurdat_atl AL041947 13.8000 -37.2000 TS 50 0 12 265
1947247N15340 1947 62 NA NA NOT_NAMED 1947-09-08 03:00:00 TS 13.7499 -37.8425 main 1817 1755 P_____________ AL041947 13.7499 -37.8425 TS 50 0 13 265
1947247N15340 1947 62 NA NA NOT_NAMED 1947-09-08 06:00:00 TS 13.7000 -38.5000 50 hurdat_atl main 1755 1703 O_____________ hurdat_atl AL041947 13.7000 -38.5000 TS 50 0 13 266
1947247N15340 1947 62 NA NA NOT_NAMED 1947-09-08 09:00:00 TS 13.6499 -39.1575 main 1688 1636 P_____________ AL041947 13.6499 -39.1575 TS 50 0 13 265
1947247N15340 1947 62 NA NA NOT_NAMED 1947-09-08 12:00:00 TS 13.6000 -39.8000 50 hurdat_atl main 1636 1586 O_____________ hurdat_atl AL041947 13.6000 -39.8000 TS 50 0 12 265
1947247N15340 1947 62 NA NA NOT_NAMED 1947-09-08 15:00:00 TS 13.5499 -40.4225 main 1579 1530 P_____________ AL041947 13.5499 -40.4225 TS 50 0 12 265
1947247N15340 1947 62 NA NA NOT_NAMED 1947-09-08 18:00:00 TS 13.5000 -41.0000 50 hurdat_atl main 1530 1490 O_____________ hurdat_atl AL041947 13.5000 -41.0000 TS 50 0 11 265
1947247N15340 1947 62 NA NA NOT_NAMED 1947-09-08 21:00:00 TS 13.4498 -41.5225 main 1482 1443 P_____________ AL041947 13.4498 -41.5225 TS 50 0 10 264
1947247N15340 1947 62 NA NA NOT_NAMED 1947-09-09 00:00:00 TS 13.4000 -42.0000 50 hurdat_atl main 1443 1412 O_____________ hurdat_atl AL041947 13.4000 -42.0000 TS 50 0 9 264
1947247N15340 1947 62 NA NA NOT_NAMED 1947-09-09 03:00:00 TS 13.3499 -42.4575 main 1396 1366 P_____________ AL041947 13.3499 -42.4575 TS 50 0 9 263
1947247N15340 1947 62 NA NA NOT_NAMED 1947-09-09 06:00:00 TS 13.3000 -42.9000 50 hurdat_atl main 1366 1329 O_____________ hurdat_atl AL041947 13.3000 -42.9000 TS 50 0 9 263
1947247N15340 1947 62 NA NA NOT_NAMED 1947-09-09 09:00:00 TS 13.2424 -43.3425 main 1329 1293 P_____________ AL041947 13.2424 -43.3425 TS 50 0 9 263
1947247N15340 1947 62 NA NA NOT_NAMED 1947-09-09 12:00:00 TS 13.2000 -43.8000 50 hurdat_atl main 1293 1259 O_____________ hurdat_atl AL041947 13.2000 -43.8000 TS 50 0 9 266
1947247N15340 1947 62 NA NA NOT_NAMED 1947-09-09 15:00:00 TS 13.1850 -44.3000 main 1259 1226 P_____________ AL041947 13.1850 -44.3000 TS 50 0 10 270
1947247N15340 1947 62 NA NA NOT_NAMED 1947-09-09 18:00:00 TS 13.2000 -44.8000 50 hurdat_atl main 1226 1201 O_____________ hurdat_atl AL041947 13.2000 -44.8000 TS 50 0 9 273
1947247N15340 1947 62 NA NA NOT_NAMED 1947-09-09 21:00:00 TS 13.2348 -45.2500 main 1195 1181 P_____________ AL041947 13.2348 -45.2500 TS 50 0 9 277
1947247N15340 1947 62 NA NA NOT_NAMED 1947-09-10 00:00:00 TS 13.3000 -45.7000 50 hurdat_atl main 1181 1156 O_____________ hurdat_atl AL041947 13.3000 -45.7000 TS 50 0 9 279
1947247N15340 1947 62 NA NA NOT_NAMED 1947-09-10 03:00:00 TS 13.3850 -46.2000 main 1156 1132 P_____________ AL041947 13.3850 -46.2000 TS 50 0 10 282
1947247N15340 1947 62 NA NA NOT_NAMED 1947-09-10 06:00:00 TS 13.5000 -46.7000 50 hurdat_atl main 1132 1117 O_____________ hurdat_atl AL041947 13.5000 -46.7000 TS 50 0 10 285
1947247N15340 1947 62 NA NA NOT_NAMED 1947-09-10 09:00:00 TS 13.6424 -47.1650 main 1111 1104 P_____________ AL041947 13.6424 -47.1650 TS 50 0 9 289
1947247N15340 1947 62 NA NA NOT_NAMED 1947-09-10 12:00:00 TS 13.8000 -47.6000 50 hurdat_atl main 1108 1097 O_____________ hurdat_atl AL041947 13.8000 -47.6000 TS 50 0 9 290
1947247N15340 1947 62 NA NA NOT_NAMED 1947-09-10 15:00:00 TS 13.9500 -48.0225 main 1097 1092 P_____________ AL041947 13.9500 -48.0225 TS 50 0 8 291
1947247N15340 1947 62 NA NA NOT_NAMED 1947-09-10 18:00:00 TS 14.1000 -48.4000 50 hurdat_atl main 1097 1092 O_____________ hurdat_atl AL041947 14.1000 -48.4000 TS 50 0 7 294
1947247N15340 1947 62 NA NA NOT_NAMED 1947-09-10 21:00:00 TS 14.2423 -48.7001 main 1093 1093 P_____________ AL041947 14.2423 -48.7001 TS 50 0 7 297
1947247N15340 1947 62 NA NA NOT_NAMED 1947-09-11 00:00:00 TS 14.4000 -49.0000 50 hurdat_atl main 1100 1096 O_____________ hurdat_atl AL041947 14.4000 -49.0000 TS 50 0 7 299
1947247N15340 1947 62 NA NA NOT_NAMED 1947-09-11 03:00:00 TS 14.5923 -49.3551 main 1106 1101 P_____________ AL041947 14.5923 -49.3551 TS 50 0 9 297
1947247N15340 1947 62 NA NA NOT_NAMED 1947-09-11 06:00:00 TS 14.8000 -49.8000 50 hurdat_atl main 1106 1098 O_____________ hurdat_atl AL041947 14.8000 -49.8000 TS 50 0 10 293
1947247N15340 1947 62 NA NA NOT_NAMED 1947-09-11 09:00:00 TS 14.9924 -50.3477 main 1104 1095 P_____________ AL041947 14.9924 -50.3477 TS 50 0 12 289
1947247N15340 1947 62 NA NA NOT_NAMED 1947-09-11 12:00:00 TS 15.2000 -51.0000 50 999 hurdat_atl main 1098 1095 O_____________ hurdat_atl AL041947 15.2000 -51.0000 TS 50 999 0 14 289
1947247N15340 1947 62 NA NA NOT_NAMED 1947-09-11 15:00:00 TS 15.4345 -51.6903 main 1098 1077 P_____________ AL041947 15.4345 -51.6903 TS 52 0 15 289
1947247N15340 1947 62 NA NA NOT_NAMED 1947-09-11 18:00:00 TS 15.7000 -52.5000 55 hurdat_atl main 1077 1014 O_____________ hurdat_atl AL041947 15.7000 -52.5000 TS 55 0 18 288
1947247N15340 1947 62 NA NA NOT_NAMED 1947-09-11 21:00:00 TS 15.9925 -53.4626 main 1005 949 P_____________ AL041947 15.9925 -53.4626 TS 60 0 20 287
1947247N15340 1947 62 NA NA NOT_NAMED 1947-09-12 00:00:00 TS 16.3000 -54.5000 65 hurdat_atl main 941 888 O_____________ hurdat_atl AL041947 16.3000 -54.5000 HU 65 1 21 287
1947247N15340 1947 62 NA NA NOT_NAMED 1947-09-12 03:00:00 TS 16.5921 -55.5079 main 888 850 P_____________ AL041947 16.5921 -55.5079 HU 70 1 20 287
1947247N15340 1947 62 NA NA NOT_NAMED 1947-09-12 06:00:00 TS 16.9000 -56.5000 75 hurdat_atl main 847 824 O_____________ hurdat_atl AL041947 16.9000 -56.5000 HU 75 1 20 289
1947247N15340 1947 62 NA NA NOT_NAMED 1947-09-12 09:00:00 TS 17.2195 -57.4581 main 819 775 P_____________ AL041947 17.2195 -57.4581 HU 80 1 19 291
1947247N15340 1947 62 NA NA NOT_NAMED 1947-09-12 12:00:00 TS 17.6000 -58.4000 85 977 hurdat_atl main 764 666 O_____________ hurdat_atl AL041947 17.6000 -58.4000 HU 85 977 2 20 295
1947247N15340 1947 62 NA NA NOT_NAMED 1947-09-12 15:00:00 TS 18.0770 -59.3502 main 655 569 P_____________ AL041947 18.0770 -59.3502 HU 87 2 21 299
1947247N15340 1947 62 NA NA NOT_NAMED 1947-09-12 18:00:00 TS 18.6000 -60.3000 90 hurdat_atl main 559 468 O_____________ hurdat_atl AL041947 18.6000 -60.3000 HU 90 2 21 299
1947247N15340 1947 62 NA NA NOT_NAMED 1947-09-12 21:00:00 TS 19.0996 -61.2580 main 459 388 P_____________ AL041947 19.0996 -61.2580 HU 92 2 21 299
1947247N15340 1947 62 NA NA NOT_NAMED 1947-09-13 00:00:00 TS 19.6000 -62.2000 95 hurdat_atl main 381 324 O_____________ hurdat_atl AL041947 19.6000 -62.2000 HU 95 2 20 300
1947247N15340 1947 62 NA NA NOT_NAMED 1947-09-13 03:00:00 TS 20.1148 -63.1376 main 324 294 P_____________ AL041947 20.1148 -63.1376 HU 97 3 20 301
1947247N15340 1947 62 NA NA NOT_NAMED 1947-09-13 06:00:00 TS 20.6000 -64.0000 100 hurdat_atl main 297 296 O_____________ hurdat_atl AL041947 20.6000 -64.0000 HU 100 3 18 301
1947247N15340 1947 62 NA NA NOT_NAMED 1947-09-13 09:00:00 TS 21.0296 -64.7604 main 302 302 P_____________ AL041947 21.0296 -64.7604 HU 102 3 15 301
1947247N15340 1947 62 NA NA NOT_NAMED 1947-09-13 12:00:00 TS 21.4000 -65.4000 105 hurdat_atl main 336 335 O_____________ hurdat_atl AL041947 21.4000 -65.4000 HU 105 3 13 302
1947247N15340 1947 62 NA NA NOT_NAMED 1947-09-13 15:00:00 TS 21.7145 -65.9306 main 369 369 P_____________ AL041947 21.7145 -65.9306 HU 107 3 11 303
1947247N15340 1947 62 NA NA NOT_NAMED 1947-09-13 18:00:00 TS 22.0000 -66.4000 110 952 hurdat_atl main 402 402 O_____________ hurdat_atl AL041947 22.0000 -66.4000 HU 110 952 3 11 303
1947247N15340 1947 62 NA NA NOT_NAMED 1947-09-13 21:00:00 TS 22.2998 -66.9002 main 418 409 P_____________ AL041947 22.2998 -66.9002 HU 112 3 11 303
1947247N15340 1947 62 NA NA NOT_NAMED 1947-09-14 00:00:00 TS 22.6000 -67.4000 115 hurdat_atl main 418 413 O_____________ hurdat_atl AL041947 22.6000 -67.4000 HU 115 4 11 303
1947247N15340 1947 62 NA NA NOT_NAMED 1947-09-14 03:00:00 TS 22.9073 -67.9001 main 427 423 P_____________ AL041947 22.9073 -67.9001 HU 117 4 11 303
1947247N15340 1947 62 NA NA NOT_NAMED 1947-09-14 06:00:00 TS 23.2000 -68.4000 120 hurdat_atl main 435 431 O_____________ hurdat_atl AL041947 23.2000 -68.4000 HU 120 4 11 301
1947247N15340 1947 62 NA NA NOT_NAMED 1947-09-14 09:00:00 TS 23.4573 -68.9003 main 449 441 P_____________ AL041947 23.4573 -68.9003 HU 122 4 10 299
1947247N15340 1947 62 NA NA NOT_NAMED 1947-09-14 12:00:00 TS 23.7000 -69.4000 125 hurdat_atl main 453 438 O_____________ hurdat_atl AL041947 23.7000 -69.4000 HU 125 4 10 298
1947247N15340 1947 62 NA NA NOT_NAMED 1947-09-14 15:00:00 TS 23.9422 -69.8854 main 438 426 P_____________ AL041947 23.9422 -69.8854 HU 125 4 10 299
1947247N15340 1947 62 NA NA NOT_NAMED 1947-09-14 18:00:00 TS 24.2000 -70.4000 125 938 hurdat_atl main 428 417 O_____________ hurdat_atl AL041947 24.2000 -70.4000 HU 125 938 4 11 299
1947247N15340 1947 62 NA NA NOT_NAMED 1947-09-14 21:00:00 TS 24.4924 -70.9851 main 421 417 P_____________ AL041947 24.4924 -70.9851 HU 125 4 12 299
1947247N15340 1947 62 NA NA NOT_NAMED 1947-09-15 00:00:00 TS 24.8000 -71.6000 125 hurdat_atl main 427 423 O_____________ hurdat_atl AL041947 24.8000 -71.6000 HU 125 4 13 298
1947247N15340 1947 62 NA NA NOT_NAMED 1947-09-15 03:00:00 TS 25.1000 -72.2226 main 443 441 P_____________ AL041947 25.1000 -72.2226 HU 125 4 12 299
1947247N15340 1947 62 NA NA NOT_NAMED 1947-09-15 06:00:00 TS 25.4000 -72.8000 125 hurdat_atl main 469 462 O_____________ hurdat_atl AL041947 25.4000 -72.8000 HU 125 4 11 302
1947247N15340 1947 62 NA NA NOT_NAMED 1947-09-15 09:00:00 TS 25.7072 -73.2802 main 462 435 P_____________ AL041947 25.7072 -73.2802 HU 122 4 10 306
1947247N15340 1947 62 NA NA NOT_NAMED 1947-09-15 12:00:00 TS 26.0000 -73.7000 120 hurdat_atl main 435 411 O_____________ hurdat_atl AL041947 26.0000 -73.7000 HU 120 4 9 307
1947247N15340 1947 62 NA NA NOT_NAMED 1947-09-15 15:00:00 TS 26.2799 -74.1150 main 411 383 P_____________ AL041947 26.2799 -74.1150 HU 117 4 9 305
1947247N15340 1947 62 NA NA NOT_NAMED 1947-09-15 18:00:00 TS 26.5000 -74.5000 115 hurdat_atl main 383 352 O_____________ hurdat_atl AL041947 26.5000 -74.5000 HU 115 4 8 297
1947247N15340 1947 62 NA NA NOT_NAMED 1947-09-15 21:00:00 TS 26.6300 -74.8727 main 352 332 P_____________ AL041947 26.6300 -74.8727 HU 112 3 7 288
1947247N15340 1947 62 NA NA NOT_NAMED 1947-09-16 00:00:00 TS 26.7000 -75.2000 110 951 hurdat_atl main 332 313 O_____________ hurdat_atl AL041947 26.7000 -75.2000 HU 110 951 3 5 284
1947247N15340 1947 62 NA NA NOT_NAMED 1947-09-16 03:00:00 TS 26.7574 -75.4651 main 313 298 P_____________ AL041947 26.7574 -75.4651 HU 110 952 3 5 283
1947247N15340 1947 62 NA NA NOT_NAMED 1947-09-16 06:00:00 TS 26.8000 -75.7000 110 hurdat_atl main 298 290 I_____________ hurdat_atl AL041947 26.8000 -75.7000 HU 110 953 3 4 285
1947247N15340 1947 62 NA NA NOT_NAMED 1947-09-16 09:00:00 TS 26.8724 -75.9349 main 290 269 P_____________ AL041947 26.8724 -75.9349 HU 107 954 3 5 283
1947247N15340 1947 62 NA NA NOT_NAMED 1947-09-16 12:00:00 TS 26.9000 -76.2000 105 956 hurdat_atl main 269 241 O_____________ hurdat_atl AL041947 26.9000 -76.2000 HU 105 956 3 5 260
1947247N15340 1947 62 NA NA NOT_NAMED 1947-09-16 15:00:00 TS 26.7908 -76.4707 main 241 209 P_____________ AL041947 26.7908 -76.4707 HU 105 955 3 7 252
1947247N15340 1947 62 NA NA NOT_NAMED 1947-09-16 18:00:00 TS 26.7000 -76.9000 105 954 hurdat_atl main 209 200 O_____________ hurdat_atl AL041947 26.7000 -76.9000 HU 105 954 3 9 261
1947247N15340 1947 62 NA NA NOT_NAMED 1947-09-16 19:00:00 TS 26.7000 -77.1000 105 954 hurdat_atl main 200 188 O_____________ hurdat_atl AL041947 26.7000 -77.1000 L HU 105 954 3 9 267
1947247N15340 1947 62 NA NA NOT_NAMED 1947-09-16 21:00:00 TS 26.6732 -77.4240 main 188 168 P_____________ AL041947 26.6732 -77.4240 HU 105 3 8 261
1947247N15340 1947 62 NA NA NOT_NAMED 1947-09-17 00:00:00 TS 26.6000 -77.8000 105 hurdat_atl main 168 167 O_____________ hurdat_atl AL041947 26.6000 -77.8000 HU 105 3 7 260
1947247N15340 1947 62 NA NA NOT_NAMED 1947-09-17 03:00:00 TS 26.5555 -78.1958 main 167 142 P_____________ AL041947 26.5555 -78.1958 HU 107 3 7 262
1947247N15340 1947 62 NA NA NOT_NAMED 1947-09-17 06:00:00 TS 26.5000 -78.6000 110 hurdat_atl main 142 108 O_____________ hurdat_atl AL041947 26.5000 -78.6000 HU 110 3 8 259
1947247N15340 1947 62 NA NA NOT_NAMED 1947-09-17 09:00:00 TS 26.4130 -79.0514 main 99 59 P_____________ AL041947 26.4130 -79.0514 HU 112 3 8 256
1947247N15340 1947 62 NA NA NOT_NAMED 1947-09-17 12:00:00 TS 26.3000 -79.5000 115 943 hurdat_atl main 59 29 O_____________ hurdat_atl AL041947 26.3000 -79.5000 HU 115 943 4 8 250
1947247N15340 1947 62 NA NA NOT_NAMED 1947-09-17 15:00:00 TS 26.1433 -79.8653 main 19 0 P_____________ AL041947 26.1433 -79.8653 HU 115 943 4 8 250
1947247N15340 1947 62 NA NA NOT_NAMED 1947-09-17 16:30:00 TS 26.1000 -80.1000 115 943 hurdat_atl main 0 0 O_____________ hurdat_atl AL041947 26.1000 -80.1000 L HU 115 943 4 10 265
1947247N15340 1947 62 NA NA NOT_NAMED 1947-09-17 18:00:00 TS 26.1000 -80.4000 105 951 hurdat_atl main 0 0 O_____________ hurdat_atl AL041947 26.1000 -80.4000 HU 105 951 3 9 272
1947247N15340 1947 62 NA NA NOT_NAMED 1947-09-17 21:00:00 TS 26.1247 -80.8814 main 0 0 P_____________ AL041947 26.1247 -80.8814 HU 97 3 8 277
1947247N15340 1947 62 NA NA NOT_NAMED 1947-09-18 00:00:00 TS 26.2000 -81.3000 90 hurdat_atl main 0 0 O_____________ hurdat_atl AL041947 26.2000 -81.3000 HU 90 2 8 285
1947247N15340 1947 62 NA NA NOT_NAMED 1947-09-18 03:00:00 TS 26.3348 -81.7850 main 0 0 P_____________ AL041947 26.3348 -81.7850 HU 87 2 9 289
1947247N15340 1947 62 NA GM NOT_NAMED 1947-09-18 06:00:00 TS 26.5000 -82.3000 85 hurdat_atl main 22 22 O_____________ hurdat_atl AL041947 26.5000 -82.3000 HU 85 2 10 288
1947247N15340 1947 62 NA GM NOT_NAMED 1947-09-18 09:00:00 TS 26.6424 -82.8427 main 54 54 P_____________ AL041947 26.6424 -82.8427 HU 85 2 10 287
1947247N15340 1947 62 NA GM NOT_NAMED 1947-09-18 12:00:00 TS 26.8000 -83.4000 85 hurdat_atl main 96 96 O_____________ hurdat_atl AL041947 26.8000 -83.4000 HU 85 2 10 289
1947247N15340 1947 62 NA GM NOT_NAMED 1947-09-18 15:00:00 TS 26.9847 -83.9427 main 132 132 P_____________ AL041947 26.9847 -83.9427 HU 87 2 11 292
1947247N15340 1947 62 NA GM NOT_NAMED 1947-09-18 18:00:00 TS 27.2000 -84.5000 90 hurdat_atl main 175 175 O_____________ hurdat_atl AL041947 27.2000 -84.5000 HU 90 2 11 294
1947247N15340 1947 62 NA GM NOT_NAMED 1947-09-18 21:00:00 TS 27.4269 -85.0631 main 223 220 P_____________ AL041947 27.4269 -85.0631 HU 92 2 12 295
1947247N15340 1947 62 NA GM NOT_NAMED 1947-09-19 00:00:00 TS 27.7000 -85.7000 95 hurdat_atl main 225 208 O_____________ hurdat_atl AL041947 27.7000 -85.7000 HU 95 2 14 295
1947247N15340 1947 62 NA GM NOT_NAMED 1947-09-19 03:00:00 TS 28.0124 -86.4631 main 217 183 P_____________ AL041947 28.0124 -86.4631 HU 95 2 16 296
1947247N15340 1947 62 NA GM NOT_NAMED 1947-09-19 06:00:00 TS 28.4000 -87.3000 95 hurdat_atl main 183 90 O_____________ hurdat_atl AL041947 28.4000 -87.3000 HU 95 2 18 301
1947247N15340 1947 62 NA GM NOT_NAMED 1947-09-19 09:00:00 TS 28.9271 -88.1660 main 80 22 P_____________ AL041947 28.9271 -88.1660 HU 95 2 18 304
1947247N15340 1947 62 NA GM NOT_NAMED 1947-09-19 12:00:00 TS 29.4000 -89.0000 95 966 hurdat_atl main 22 9 O_____________ hurdat_atl AL041947 29.4000 -89.0000 HU 95 966 2 16 300
1947247N15340 1947 62 NA GM NOT_NAMED 1947-09-19 14:00:00 TS 29.6000 -89.5000 95 966 hurdat_atl main 9 0 O_____________ hurdat_atl AL041947 29.6000 -89.5000 L HU 95 966 2 15 295
1947247N15340 1947 62 NA NA NOT_NAMED 1947-09-19 15:00:00 TS 29.7159 -89.7852 main 0 0 P_____________ AL041947 29.7159 -89.7852 HU 91 966 2 17 296
1947247N15340 1947 62 NA NA NOT_NAMED 1947-09-19 18:00:00 TS 30.1000 -90.7000 80 970 hurdat_atl main 0 0 O_____________ hurdat_atl AL041947 30.1000 -90.7000 HU 80 970 1 16 297
1947247N15340 1947 62 NA NA NOT_NAMED 1947-09-19 21:00:00 TS 30.4467 -91.4783 main 0 0 P_____________ AL041947 30.4467 -91.4783 HU 70 975 1 15 298
1947247N15340 1947 62 NA NA NOT_NAMED 1947-09-20 00:00:00 TS 30.8000 -92.2000 60 981 hurdat_atl main 0 0 O_____________ hurdat_atl AL041947 30.8000 -92.2000 TS 60 981 0 15 300
1947247N15340 1947 62 NA NA NOT_NAMED 1947-09-20 03:00:00 TS 31.1696 -92.9510 main 0 0 P_____________ AL041947 31.1696 -92.9510 TS 50 984 0 15 302
1947247N15340 1947 62 NA NA NOT_NAMED 1947-09-20 06:00:00 TS 31.6000 -93.7000 40 987 hurdat_atl main 0 0 O_____________ hurdat_atl AL041947 31.6000 -93.7000 TS 40 987 0 16 306
1947247N15340 1947 62 NA NA NOT_NAMED 1947-09-20 09:00:00 TS 32.1354 -94.5091 main 0 0 P_____________ AL041947 32.1354 -94.5091 TS 37 990 0 17 311
1947247N15340 1947 62 NA NA NOT_NAMED 1947-09-20 12:00:00 TS 32.7000 -95.2000 35 994 hurdat_atl main 0 0 O_____________ hurdat_atl AL041947 32.7000 -95.2000 TS 35 994 0 15 316
1947247N15340 1947 62 NA NA NOT_NAMED 1947-09-20 15:00:00 TS 33.1843 -95.7293 main 0 0 P_____________ AL041947 33.1843 -95.7293 TS 32 995 -1 12 330
1947247N15340 1947 62 NA NA NOT_NAMED 1947-09-20 18:00:00 TS 33.7000 -95.9000 30 996 hurdat_atl main 0 0 O_____________ hurdat_atl AL041947 33.7000 -95.9000 TD 30 996 -1 11 4
1947247N15340 1947 62 NA NA NOT_NAMED 1947-09-20 21:00:00 TS 34.3194 -95.6302 main 0 0 P_____________ AL041947 34.3194 -95.6302 TD 27 996 -1 15 30
1947247N15340 1947 62 NA NA NOT_NAMED 1947-09-21 00:00:00 TS 35.0000 -95.0000 25 997 hurdat_atl main 0 0 O_____________ hurdat_atl AL041947 35.0000 -95.0000 TD 25 997 -1 18 40
1947247N15340 1947 62 NA NA NOT_NAMED 1947-09-21 03:00:00 TS 35.6778 -94.2169 main 0 0 P_____________ AL041947 35.6778 -94.2169 TD 22 998 -1 20 45
1947247N15340 1947 62 NA NA NOT_NAMED 1947-09-21 06:00:00 TS 36.4000 -93.3000 20 999 hurdat_atl main 0 0 O_____________ hurdat_atl AL041947 36.4000 -93.3000 TD 20 999 -1 21 44
1947247N15340 1947 62 NA NA NOT_NAMED 1947-09-21 09:00:00 TS 37.1833 -92.3936 main 0 0 P_____________ AL041947 37.1833 -92.3936 TD 20 999 -1 21 42
1947247N15340 1947 62 NA NA NOT_NAMED 1947-09-21 12:00:00 ET 38.0000 -91.5000 20 1000 hurdat_atl main 0 O_____________ hurdat_atl AL041947 38.0000 -91.5000 EX 20 1000 -4 22 41

IBTrACS Databaseについて

本データベースは、米国NOAAが公開する1842年以降の世界の熱帯低気圧のベストトラックデータアーカイブInternational Best Track Archive for Climate Stewardship (IBTrACS)を、ウェブで閲覧しやすい形式に変換したものです。

最終更新日:2021-12-03